Time;durP1;ratioP1;P1;durP2;ratioP2;P2;SDS_P1;SDS_P2;PMS_P1;PMS_P2;Temp;Humidity;BMP_temperature;BMP_pressure;BME280_temperature;BME280_humidity;BME280_pressure;Samples;Min_cycle;Max_cycle;Signal;HPM_P1;HPM_P2
2021/10/13 00:02:08;;;;;;;20.55;12.52;;;;;;;16.75;36.28;100756.84;5028797;28;20029;-61
2021/10/13 00:04:34;;;;;;;22.08;12.32;;;;;;;15.04;39.64;100758.31;5029023;28;20123;-64
2021/10/13 00:06:59;;;;;;;18.73;12.10;;;;;;;13.21;43.37;100755.19;5029013;28;20049;-62
2021/10/13 00:09:25;;;;;;;25.05;13.32;;;;;;;11.94;46.61;100750.81;5028732;28;20525;-63
2021/10/13 00:11:50;;;;;;;19.77;12.48;;;;;;;11.03;49.19;100753.09;5011767;28;20061;-64
2021/10/13 00:14:15;;;;;;;26.45;13.27;;;;;;;10.32;51.35;100756.16;5009065;28;20050;-65
2021/10/13 00:16:41;;;;;;;22.25;13.18;;;;;;;9.78;53.32;100754.25;5008648;28;20069;-63
2021/10/13 00:19:06;;;;;;;21.25;12.68;;;;;;;9.41;54.42;100755.97;5007439;28;20038;-63
2021/10/13 00:21:32;;;;;;;21.88;12.13;;;;;;;9.16;54.53;100752.28;5008269;28;20569;-62
2021/10/13 00:23:57;;;;;;;21.38;11.68;;;;;;;8.88;55.39;100746.56;5006684;28;20384;-64
2021/10/13 00:26:22;;;;;;;24.08;12.25;;;;;;;8.67;56.81;100756.50;5005646;28;20097;-67
2021/10/13 00:28:48;;;;;;;22.60;10.98;;;;;;;8.58;55.90;100732.25;5008442;28;20050;-66
2021/10/13 00:31:13;;;;;;;18.27;11.25;;;;;;;8.28;58.17;100744.84;5007723;28;20038;-66
2021/10/13 00:33:39;;;;;;;28.13;13.25;;;;;;;7.94;59.14;100733.00;5008898;28;20042;-64
2021/10/13 00:36:04;;;;;;;20.23;11.13;;;;;;;8.00;59.21;100752.50;5008461;28;20034;-62
2021/10/13 00:38:29;;;;;;;20.13;11.55;;;;;;;8.00;59.85;100750.59;5007125;28;20053;-63
2021/10/13 00:40:55;;;;;;;22.73;12.38;;;;;;;8.01;59.36;100754.88;5008288;28;20058;-62
2021/10/13 00:43:20;;;;;;;25.65;11.82;;;;;;;8.03;59.04;100755.34;5005404;28;20068;-63
2021/10/13 00:45:46;;;;;;;20.08;11.88;;;;;;;7.92;59.87;100756.78;5008487;28;20553;-62
2021/10/13 00:48:11;;;;;;;20.20;11.15;;;;;;;7.93;59.99;100752.19;5012572;28;20038;-64
2021/10/13 00:50:37;;;;;;;18.70;11.98;;;;;;;7.83;59.94;100758.69;5012415;28;20030;-62
2021/10/13 00:53:02;;;;;;;21.85;11.68;;;;;;;7.65;60.73;100749.78;5010845;28;20050;-63
2021/10/13 00:55:27;;;;;;;17.70;11.13;;;;;;;7.49;61.35;100748.69;4991292;28;20050;-62
2021/10/13 00:57:53;;;;;;;18.80;11.38;;;;;;;7.47;61.98;100761.66;4990698;28;20513;-63
2021/10/13 01:00:20;;;;;;;15.60;11.07;;;;;;;7.31;61.89;100747.88;5008142;28;20054;-61
2021/10/13 01:02:52;;;;;;;19.13;11.55;;;;;;;7.38;62.50;100764.34;5007031;28;20537;-62
2021/10/13 01:05:31;;;;;;;17.80;11.13;;;;;;;7.51;61.75;100761.84;5008182;28;20050;-62
2021/10/13 01:08:48;;;;;;;17.13;9.70;;;;;;;7.56;61.23;100758.97;4997044;28;20109;-63
2021/10/13 01:11:41;;;;;;;17.63;10.38;;;;;;;7.45;61.84;100756.59;4993119;28;20056;-63
2021/10/13 01:14:15;;;;;;;17.60;10.23;;;;;;;7.35;62.30;100740.75;4995260;28;20546;-64
2021/10/13 01:17:03;;;;;;;16.27;9.93;;;;;;;7.42;62.08;100753.75;4993655;28;20521;-62
2021/10/13 01:19:46;;;;;;;17.77;10.48;;;;;;;7.34;62.52;100751.84;4993198;28;20080;-62
2021/10/13 01:22:42;;;;;;;17.15;10.35;;;;;;;7.48;62.18;100759.75;4994429;28;20137;-63
2021/10/13 01:25:30;;;;;;;13.40;9.05;;;;;;;7.38;62.19;100753.56;4993459;28;20067;-63
2021/10/13 01:28:02;;;;;;;17.63;9.90;;;;;;;7.25;62.93;100746.44;4993438;28;20046;-62
2021/10/13 01:30:49;;;;;;;16.10;9.98;;;;;;;7.25;62.64;100738.34;4994029;28;20042;-62
2021/10/13 01:33:21;;;;;;;15.13;9.75;;;;;;;7.16;63.18;100722.19;4977355;28;20066;-61
2021/10/13 01:35:48;;;;;;;14.70;10.27;;;;;;;7.36;62.89;100750.41;4976895;28;20402;-63
2021/10/13 01:38:18;;;;;;;13.52;9.70;;;;;;;7.31;63.09;100755.94;4994123;28;20057;-62
2021/10/13 01:40:43;;;;;;;17.95;10.27;;;;;;;7.29;63.33;100754.66;4976581;28;20525;-61
2021/10/13 01:43:08;;;;;;;16.67;10.40;;;;;;;7.29;63.56;100762.72;4992833;28;20038;-62
2021/10/13 01:45:34;;;;;;;18.20;10.85;;;;;;;7.29;63.46;100758.16;4992809;28;20073;-61
2021/10/13 01:47:59;;;;;;;16.85;11.10;;;;;;;7.25;63.52;100761.78;4976652;28;20501;-61
2021/10/13 01:50:25;;;;;;;17.40;10.10;;;;;;;7.24;63.53;100757.50;4976174;28;20038;-61
2021/10/13 01:52:50;;;;;;;16.77;10.43;;;;;;;7.19;63.75;100749.56;4992270;28;20506;-62
2021/10/13 01:55:18;;;;;;;17.73;11.00;;;;;;;7.31;63.64;100755.16;4976871;28;20053;-62
2021/10/13 01:57:48;;;;;;;19.17;11.70;;;;;;;7.29;63.33;100755.44;4976112;28;20038;-64
2021/10/13 02:00:14;;;;;;;19.40;12.15;;;;;;;7.25;63.68;100756.41;4991202;28;20054;-62
2021/10/13 02:02:39;;;;;;;17.90;11.32;;;;;;;7.23;63.96;100751.34;4976435;28;20495;-62
2021/10/13 02:05:05;;;;;;;17.42;11.13;;;;;;;7.31;64.02;100747.88;4976147;28;20089;-63
2021/10/13 02:07:30;;;;;;;16.88;11.10;;;;;;;7.26;63.80;100749.91;4992623;28;20130;-62
2021/10/13 02:09:58;;;;;;;17.65;11.75;;;;;;;7.28;64.09;100764.63;4992734;28;20467;-61
2021/10/13 02:12:23;;;;;;;19.95;11.45;;;;;;;7.40;63.42;100762.16;4992365;28;20133;-61
2021/10/13 02:14:49;;;;;;;16.15;10.70;;;;;;;7.40;63.42;100766.75;4992884;28;20050;-61
2021/10/13 02:17:14;;;;;;;18.55;11.02;;;;;;;7.31;63.72;100755.16;4960311;28;20042;-64
2021/10/13 02:19:40;;;;;;;18.02;11.90;;;;;;;7.31;63.53;100744.41;4974528;28;20042;-61
2021/10/13 02:22:05;;;;;;;18.10;11.38;;;;;;;7.35;63.86;100756.09;4992512;28;20053;-61
2021/10/13 02:24:39;;;;;;;24.02;12.43;;;;;;;7.38;63.63;100764.34;4992283;28;20487;-63
2021/10/13 02:27:05;;;;;;;19.70;11.30;;;;;;;7.34;64.26;100765.28;4992345;28;20074;-61
2021/10/13 02:29:31;;;;;;;24.58;12.05;;;;;;;7.26;64.55;100764.16;4992336;28;20050;-62
2021/10/13 02:31:56;;;;;;;18.95;12.25;;;;;;;7.26;64.50;100758.78;4976538;28;20045;-61
2021/10/13 02:34:22;;;;;;;23.13;13.15;;;;;;;7.31;64.39;100755.16;4992115;28;20069;-62
2021/10/13 02:36:47;;;;;;;17.73;12.05;;;;;;;7.34;63.76;100746.44;4993382;28;20038;-62
2021/10/13 02:39:13;;;;;;;22.98;13.48;;;;;;;7.45;63.69;100759.28;4992973;28;20129;-63
2021/10/13 02:41:38;;;;;;;18.75;13.35;;;;;;;7.39;64.70;100757.88;4993234;28;20367;-62
2021/10/13 02:44:04;;;;;;;22.05;12.45;;;;;;;7.24;64.93;100760.22;4991129;28;20158;-62
2021/10/13 02:46:32;;;;;;;20.23;13.13;;;;;;;7.20;65.12;100757.34;4990592;28;20132;-63
2021/10/13 02:49:23;;;;;;;19.38;12.88;;;;;;;7.24;65.00;100763.69;4991956;28;20037;-62
2021/10/13 02:52:00;;;;;;;17.35;12.73;;;;;;;7.14;65.46;100743.25;4991180;28;20042;-62
2021/10/13 02:54:30;;;;;;;21.98;14.00;;;;;;;7.12;65.66;100744.66;4990527;28;20038;-63
2021/10/13 02:56:56;;;;;;;21.30;12.95;;;;;;;7.26;65.14;100755.28;4990193;28;20515;-61
2021/10/13 02:59:34;;;;;;;20.38;13.13;;;;;;;7.24;65.76;100763.69;4989934;28;20070;-63
2021/10/13 03:02:04;;;;;;;24.15;13.75;;;;;;;7.26;65.70;100760.69;4992238;28;20464;-61
2021/10/13 03:04:32;;;;;;;20.90;13.57;;;;;;;7.26;65.33;100768.75;4990929;28;20507;-62
2021/10/13 03:07:01;;;;;;;20.60;13.30;;;;;;;7.24;65.73;100768.28;4991113;28;20043;-62
2021/10/13 03:09:28;;;;;;;18.80;13.30;;;;;;;7.13;66.28;100765.88;4990761;28;20050;-62
2021/10/13 03:11:54;;;;;;;20.85;13.60;;;;;;;7.27;65.71;100771.13;4990762;28;20069;-63
2021/10/13 03:14:21;;;;;;;23.38;13.57;;;;;;;7.24;66.09;100769.06;4992863;28;20112;-62
2021/10/13 03:16:46;;;;;;;18.38;12.55;;;;;;;7.27;66.02;100771.13;4974638;28;20053;-61
2021/10/13 03:19:12;;;;;;;21.67;13.60;;;;;;;7.17;66.28;100768.72;4991743;28;20067;-62
2021/10/13 03:21:40;;;;;;;20.70;12.88;;;;;;;7.12;66.41;100775.06;4991107;28;20056;-63
2021/10/13 03:24:05;;;;;;;21.73;12.70;;;;;;;7.09;66.84;100766.81;4975730;28;20057;-62
2021/10/13 03:26:31;;;;;;;20.38;12.18;;;;;;;7.24;66.29;100776.34;4975281;28;20038;-61
2021/10/13 03:28:56;;;;;;;19.08;12.57;;;;;;;7.30;66.05;100770.53;4992485;28;20073;-62
2021/10/13 03:31:21;;;;;;;27.52;14.35;;;;;;;7.17;66.18;100752.59;4992267;28;20042;-61
2021/10/13 03:33:50;;;;;;;19.42;12.40;;;;;;;7.21;66.87;100766.22;4992832;28;20046;-63
2021/10/13 03:36:16;;;;;;;20.98;12.55;;;;;;;7.23;67.08;100764.00;4975238;28;20043;-62
2021/10/13 03:38:42;;;;;;;20.70;13.15;;;;;;;7.15;66.88;100766.34;4992733;28;20046;-63
2021/10/13 03:41:07;;;;;;;20.90;13.90;;;;;;;7.20;67.02;100756.53;4992143;28;20042;-62
2021/10/13 03:43:32;;;;;;;20.30;12.45;;;;;;;7.32;66.65;100754.84;4974821;28;20048;-62
2021/10/13 03:45:58;;;;;;;19.40;13.35;;;;;;;7.35;66.90;100766.88;4990992;28;20466;-62
2021/10/13 03:48:24;;;;;;;19.73;12.98;;;;;;;7.35;67.17;100761.50;4991324;28;20058;-61
2021/10/13 03:50:49;;;;;;;23.17;12.98;;;;;;;7.29;67.64;100747.38;4992022;28;20124;-63
2021/10/13 03:53:15;;;;;;;24.42;13.90;;;;;;;7.32;67.65;100768.31;4992358;28;20101;-62
2021/10/13 03:55:40;;;;;;;18.95;12.98;;;;;;;7.33;67.77;100767.19;4991952;28;20415;-65
2021/10/13 03:58:05;;;;;;;22.33;14.20;;;;;;;7.33;67.86;100764.50;4993236;28;20038;-65
2021/10/13 04:00:31;;;;;;;20.27;13.20;;;;;;;7.44;67.77;100773.84;4993173;28;20057;-63
2021/10/13 04:02:56;;;;;;;19.50;13.48;;;;;;;7.37;68.48;100775.41;4992138;28;20516;-63
2021/10/13 04:05:22;;;;;;;19.17;13.60;;;;;;;7.28;69.23;100771.91;4991914;28;20384;-65
2021/10/13 04:07:47;;;;;;;23.67;14.77;;;;;;;7.42;68.51;100768.00;4990855;28;20058;-63
2021/10/13 04:10:14;;;;;;;23.85;14.05;;;;;;;7.42;69.10;100769.91;4990934;28;20400;-65
2021/10/13 04:12:40;;;;;;;23.00;14.57;;;;;;;7.41;68.98;100779.09;4990616;28;20474;-61
2021/10/13 04:15:07;;;;;;;23.92;15.55;;;;;;;7.39;69.04;100770.50;4990594;28;20046;-65
2021/10/13 04:17:35;;;;;;;22.40;13.95;;;;;;;7.47;69.01;100771.63;4990647;28;20104;-63
2021/10/13 04:20:05;;;;;;;23.73;14.63;;;;;;;7.51;69.45;100775.31;4990317;28;20521;-64
2021/10/13 04:22:30;;;;;;;26.75;14.73;;;;;;;7.30;69.65;100762.44;4991507;28;20070;-62
2021/10/13 04:24:56;;;;;;;21.95;14.55;;;;;;;7.48;69.50;100773.22;4992036;28;20046;-63
2021/10/13 04:27:21;;;;;;;20.48;14.15;;;;;;;7.48;68.62;100757.84;4991919;28;20525;-63
2021/10/13 04:29:47;;;;;;;23.80;15.10;;;;;;;7.52;68.82;100771.50;4992002;28;20034;-65
2021/10/13 04:32:12;;;;;;;20.40;14.30;;;;;;;7.61;69.10;100778.47;4992252;28;20054;-65
2021/10/13 04:34:38;;;;;;;21.38;14.25;;;;;;;7.71;68.78;100775.47;4991669;28;20097;-63
2021/10/13 04:37:04;;;;;;;20.02;13.77;;;;;;;7.69;68.73;100785.00;4993396;28;20057;-62
2021/10/13 04:39:29;;;;;;;21.05;14.82;;;;;;;7.72;68.46;100771.66;4993349;28;20085;-64
2021/10/13 04:41:55;;;;;;;22.38;14.88;;;;;;;7.86;68.24;100782.28;4991160;28;20054;-65
2021/10/13 04:44:20;;;;;;;21.25;14.52;;;;;;;7.88;68.34;100788.16;4995265;28;20400;-64
2021/10/13 04:46:45;;;;;;;20.60;14.57;;;;;;;7.90;68.06;100782.47;4995629;28;20034;-64
2021/10/13 04:49:11;;;;;;;23.42;15.15;;;;;;;7.84;69.07;100789.88;4987741;28;20050;-65
2021/10/13 04:51:36;;;;;;;24.65;15.45;;;;;;;7.89;68.41;100789.75;4995118;28;20046;-66
2021/10/13 04:54:01;;;;;;;20.38;14.90;;;;;;;7.83;68.60;100790.22;4994995;28;20085;-66
2021/10/13 04:56:27;;;;;;;21.13;14.20;;;;;;;7.85;68.81;100794.16;4994610;28;20054;-62
2021/10/13 04:58:52;;;;;;;23.13;14.95;;;;;;;7.72;69.45;100789.72;4994944;28;20418;-65
2021/10/13 05:01:18;;;;;;;24.45;15.50;;;;;;;7.85;68.71;100777.22;4995039;28;20046;-64
2021/10/13 05:03:43;;;;;;;24.27;14.70;;;;;;;7.92;68.49;100793.69;4995327;28;20100;-65
2021/10/13 05:06:08;;;;;;;23.67;15.57;;;;;;;8.06;68.75;100788.97;4994801;28;20081;-64
2021/10/13 05:08:34;;;;;;;22.65;14.93;;;;;;;8.11;68.13;100794.16;4995059;28;20154;-67
2021/10/13 05:10:59;;;;;;;21.23;13.73;;;;;;;8.13;68.05;100801.94;4993706;28;20069;-62
2021/10/13 05:13:24;;;;;;;22.67;15.02;;;;;;;8.03;68.51;100789.56;4994732;28;20054;-66
2021/10/13 05:15:50;;;;;;;26.98;15.48;;;;;;;8.06;68.56;100794.34;4994267;28;20041;-65
2021/10/13 05:18:15;;;;;;;23.70;16.13;;;;;;;8.07;68.72;100789.75;4994742;28;20034;-66
2021/10/13 05:20:41;;;;;;;24.48;16.08;;;;;;;8.19;68.71;100792.59;4994277;28;20046;-66
2021/10/13 05:23:06;;;;;;;23.35;15.80;;;;;;;8.16;68.85;100790.53;4994250;28;20046;-63
2021/10/13 05:25:32;;;;;;;23.92;15.80;;;;;;;8.25;68.47;100796.72;4994709;28;20040;-64
2021/10/13 05:27:57;;;;;;;26.67;16.63;;;;;;;8.17;69.21;100792.91;4994865;28;20038;-65
2021/10/13 05:30:23;;;;;;;25.20;17.02;;;;;;;8.02;68.67;100775.31;4994148;28;20046;-67
2021/10/13 05:32:48;;;;;;;25.58;17.08;;;;;;;8.17;69.35;100792.91;4992953;28;20038;-63
2021/10/13 05:35:14;;;;;;;28.50;17.55;;;;;;;8.15;69.67;100797.81;4993466;28;20050;-64
2021/10/13 05:37:39;;;;;;;24.52;17.13;;;;;;;8.10;69.93;100791.78;4994063;28;20108;-63
2021/10/13 05:40:05;;;;;;;23.15;16.80;;;;;;;8.14;69.34;100790.81;4994115;28;20050;-64
2021/10/13 05:42:31;;;;;;;27.00;18.00;;;;;;;8.10;69.28;100794.50;4993827;28;20547;-65
2021/10/13 05:44:56;;;;;;;24.77;17.25;;;;;;;8.10;69.92;100797.97;4994174;28;20086;-66
2021/10/13 05:47:22;;;;;;;23.38;16.77;;;;;;;8.11;69.14;100779.91;4992293;28;20063;-64
2021/10/13 05:49:47;;;;;;;29.23;18.63;;;;;;;8.14;69.53;100798.91;4993884;28;20038;-62
2021/10/13 05:52:13;;;;;;;25.67;16.48;;;;;;;8.26;69.22;100798.28;4993997;28;20050;-64
2021/10/13 05:54:39;;;;;;;27.90;17.80;;;;;;;8.34;69.08;100802.06;4992393;28;20049;-64
2021/10/13 05:57:05;;;;;;;30.80;19.30;;;;;;;8.38;68.95;100809.25;4993986;28;20066;-64
2021/10/13 05:59:30;;;;;;;38.42;24.65;;;;;;;8.42;68.72;100804.78;4993618;28;20125;-63
2021/10/13 06:01:56;;;;;;;31.48;20.63;;;;;;;8.35;69.53;100807.19;4993736;28;20057;-64
2021/10/13 06:04:21;;;;;;;32.38;20.38;;;;;;;8.47;69.28;100810.00;4992125;28;20062;-63
2021/10/13 06:06:47;;;;;;;27.70;18.02;;;;;;;8.37;69.10;100802.25;4994132;28;20069;-62
2021/10/13 06:09:12;;;;;;;28.80;17.65;;;;;;;8.35;68.89;100791.00;4992523;28;20077;-65
2021/10/13 06:11:37;;;;;;;28.90;18.50;;;;;;;8.48;68.91;100795.41;4993664;28;20577;-64
2021/10/13 06:14:03;;;;;;;27.38;17.60;;;;;;;8.53;68.91;100802.56;4993786;28;20049;-64
2021/10/13 06:16:28;;;;;;;27.88;18.73;;;;;;;8.69;68.34;100802.81;4992228;28;20045;-63
2021/10/13 06:18:54;;;;;;;25.60;17.38;;;;;;;8.91;67.75;100807.19;4992562;28;20046;-65
2021/10/13 06:21:20;;;;;;;28.75;18.27;;;;;;;8.81;67.50;100802.94;4993499;28;20038;-61
2021/10/13 06:23:46;;;;;;;27.02;17.60;;;;;;;8.92;67.47;100806.09;4993721;28;20042;-64
2021/10/13 06:26:12;;;;;;;26.23;16.50;;;;;;;8.97;66.79;100805.91;4993126;28;20522;-66
2021/10/13 06:28:37;;;;;;;33.72;19.08;;;;;;;9.04;67.46;100798.88;4992922;28;20381;-65
2021/10/13 06:31:03;;;;;;;28.17;17.23;;;;;;;9.10;66.69;100805.69;4992988;28;20093;-64
2021/10/13 06:33:28;;;;;;;26.00;17.45;;;;;;;8.95;67.37;100806.22;4993449;28;20050;-64
2021/10/13 06:35:53;;;;;;;27.38;18.98;;;;;;;9.11;66.76;100801.88;4993243;28;20416;-67
2021/10/13 06:38:19;;;;;;;27.20;18.60;;;;;;;9.10;66.79;100805.69;4992822;28;20046;-62
2021/10/13 06:40:44;;;;;;;29.00;19.00;;;;;;;9.16;66.17;100788.19;4991797;28;20522;-64
2021/10/13 06:43:11;;;;;;;26.95;18.10;;;;;;;9.40;66.21;100803.78;4992677;28;20455;-62
2021/10/13 06:45:38;;;;;;;27.60;18.02;;;;;;;9.57;65.41;100810.19;4993175;28;20050;-63
2021/10/13 06:48:04;;;;;;;28.65;18.15;;;;;;;9.85;64.37;100796.94;4992138;28;20053;-62
2021/10/13 06:50:29;;;;;;;27.80;17.02;;;;;;;10.14;63.80;100805.00;4993379;28;20042;-60
2021/10/13 06:52:54;;;;;;;25.95;17.95;;;;;;;10.39;63.03;100795.06;4993578;28;20037;-63
2021/10/13 06:55:20;;;;;;;26.35;17.45;;;;;;;11.01;61.63;100804.91;4999103;28;20058;-63
2021/10/13 06:57:45;;;;;;;27.63;17.90;;;;;;;11.59;59.50;100794.69;5015684;28;20078;-62
2021/10/13 07:00:11;;;;;;;24.15;16.65;;;;;;;12.33;57.32;100798.00;5013995;28;20038;-63
2021/10/13 07:02:37;;;;;;;19.35;14.95;;;;;;;13.00;55.76;100796.22;5013643;28;20050;-61
2021/10/13 07:05:02;;;;;;;24.38;15.45;;;;;;;14.01;52.80;100810.88;5013363;28;20046;-62
2021/10/13 07:07:28;;;;;;;23.77;15.98;;;;;;;14.78;49.97;100801.84;4994343;28;20074;-62
2021/10/13 07:09:53;;;;;;;22.95;15.77;;;;;;;15.64;48.07;100801.28;4992023;28;20069;-65
2021/10/13 07:12:19;;;;;;;21.38;15.90;;;;;;;16.69;45.88;100804.84;4992654;28;20054;-62
2021/10/13 07:14:44;;;;;;;22.50;15.63;;;;;;;17.21;43.87;100803.69;4991250;28;20148;-61
2021/10/13 07:17:10;;;;;;;21.17;15.57;;;;;;;17.59;43.28;100794.16;4992569;28;20498;-63
2021/10/13 07:19:35;;;;;;;21.05;15.73;;;;;;;18.47;41.38;100803.09;4992102;28;20054;-64
2021/10/13 07:22:02;;;;;;;21.98;15.25;;;;;;;19.09;39.51;100806.31;4990963;28;20053;-62
2021/10/13 07:24:27;;;;;;;21.42;15.50;;;;;;;19.22;39.41;100808.66;4992020;28;20474;-63
2021/10/13 07:26:53;;;;;;;21.40;14.88;;;;;;;19.92;38.28;100791.25;4990734;28;20042;-62
2021/10/13 07:29:18;;;;;;;21.83;14.68;;;;;;;20.83;36.62;100801.31;4992332;28;20049;-62
2021/10/13 07:31:44;;;;;;;17.65;14.60;;;;;;;21.12;35.64;100799.09;4990912;28;20049;-62
2021/10/13 07:34:09;;;;;;;18.10;14.20;;;;;;;21.38;34.91;100804.00;4991306;28;20101;-62
2021/10/13 07:36:34;;;;;;;19.90;14.65;;;;;;;21.67;33.96;100795.44;4990820;28;20050;-62
2021/10/13 07:39:00;;;;;;;16.27;13.77;;;;;;;21.34;34.60;100813.50;4996638;28;20048;-62
2021/10/13 07:41:27;;;;;;;18.40;15.45;;;;;;;21.16;35.24;100799.88;5000160;28;20058;-64
2021/10/13 07:43:52;;;;;;;20.58;14.65;;;;;;;20.86;35.40;100803.28;5006966;28;20057;-63
2021/10/13 07:46:17;;;;;;;19.88;16.00;;;;;;;19.92;36.46;100809.69;5002056;28;20050;-62
2021/10/13 07:48:43;;;;;;;25.20;16.85;;;;;;;18.46;39.26;100791.34;4991065;28;20061;-62
2021/10/13 07:51:08;;;;;;;21.20;15.68;;;;;;;17.49;41.37;100799.56;4985156;28;20051;-62
2021/10/13 07:53:34;;;;;;;21.88;16.05;;;;;;;16.85;42.75;100806.13;4991784;28;20049;-62
2021/10/13 07:55:59;;;;;;;23.23;15.68;;;;;;;16.38;43.85;100803.31;4992575;28;20046;-59
2021/10/13 07:58:24;;;;;;;22.05;16.55;;;;;;;15.91;45.07;100813.69;4993459;28;20054;-63
2021/10/13 08:00:50;;;;;;;20.17;14.88;;;;;;;15.56;45.36;100789.44;4991814;28;20538;-62
2021/10/13 08:03:15;;;;;;;19.38;15.00;;;;;;;15.44;45.84;100808.72;4992384;28;20049;-61
2021/10/13 08:05:41;;;;;;;20.83;15.38;;;;;;;15.20;46.18;100793.59;4990754;28;20057;-61
2021/10/13 08:08:06;;;;;;;20.08;15.45;;;;;;;14.93;47.10;100811.06;4985537;28;21303;-61
2021/10/13 08:10:32;;;;;;;20.67;15.18;;;;;;;14.47;47.74;100811.03;4980199;28;20034;-64
2021/10/13 08:12:59;;;;;;;23.75;15.93;;;;;;;14.17;48.86;100803.44;4989556;28;20046;-60
2021/10/13 08:15:25;;;;;;;21.60;15.48;;;;;;;14.03;49.51;100813.28;4991765;28;20054;-62
2021/10/13 08:17:50;;;;;;;21.02;16.13;;;;;;;13.72;50.02;100807.56;4993619;28;20459;-61
2021/10/13 08:20:16;;;;;;;22.33;15.20;;;;;;;13.60;50.16;100799.56;4992969;28;20054;-61
2021/10/13 08:22:41;;;;;;;24.00;15.27;;;;;;;13.68;50.33;100809.44;4995134;28;20081;-61
2021/10/13 08:25:07;;;;;;;20.48;15.07;;;;;;;14.12;50.15;100808.38;4995490;28;20042;-61
2021/10/13 08:27:32;;;;;;;22.38;15.82;;;;;;;15.03;47.73;100802.28;4996457;28;20395;-61
2021/10/13 08:29:58;;;;;;;21.30;15.00;;;;;;;15.76;45.79;100803.75;4996411;28;20051;-62
2021/10/13 08:32:23;;;;;;;23.92;18.38;;;;;;;16.12;45.00;100802.25;4995399;28;20117;-62
2021/10/13 08:34:49;;;;;;;24.48;17.00;;;;;;;16.04;44.94;100803.34;4995062;28;20554;-62
2021/10/13 08:37:14;;;;;;;23.58;16.77;;;;;;;15.64;45.85;100804.00;4994746;28;20062;-60
2021/10/13 08:39:39;;;;;;;22.42;15.77;;;;;;;15.58;45.92;100797.25;4995793;28;20042;-61
2021/10/13 08:42:05;;;;;;;23.13;15.27;;;;;;;15.73;45.62;100807.25;4994252;28;20108;-61
2021/10/13 08:44:31;;;;;;;31.98;20.55;;;;;;;15.76;45.74;100806.50;4994644;28;20053;-59
2021/10/13 08:46:57;;;;;;;25.55;16.55;;;;;;;16.27;44.36;100795.78;4993737;28;20045;-64
2021/10/13 08:49:22;;;;;;;21.17;15.75;;;;;;;18.03;41.37;100811.59;4995417;28;20046;-60
2021/10/13 08:51:47;;;;;;;18.35;15.23;;;;;;;19.89;37.68;100805.75;4994125;28;20038;-60
2021/10/13 08:54:19;;;;;;;17.05;13.30;;;;;;;21.54;34.59;100794.41;4995368;28;20054;-60
2021/10/13 08:56:45;;;;;;;20.63;14.77;;;;;;;22.99;32.25;100808.19;4995334;28;20439;-62
2021/10/13 08:59:42;;;;;;;22.38;15.52;;;;;;;24.00;30.64;100812.66;4995412;28;20042;-62
2021/10/13 09:02:08;;;;;;;17.45;14.20;;;;;;;23.02;31.09;100804.56;4994854;28;20558;-62
2021/10/13 09:04:34;;;;;;;17.83;13.70;;;;;;;23.16;30.50;100798.03;4994712;28;20044;-62
2021/10/13 09:07:01;;;;;;;18.23;13.20;;;;;;;23.42;30.11;100818.50;4994466;28;20051;-62
2021/10/13 09:09:26;;;;;;;16.55;13.20;;;;;;;22.92;30.70;100818.56;4994885;28;20076;-61
2021/10/13 09:11:52;;;;;;;18.63;13.15;;;;;;;23.09;30.48;100811.97;4992283;28;20038;-62
2021/10/13 09:14:22;;;;;;;19.27;14.23;;;;;;;22.42;31.83;100817.31;4993856;28;20054;-61
2021/10/13 09:17:00;;;;;;;16.67;13.55;;;;;;;21.50;32.98;100810.94;4993646;28;20042;-62
2021/10/13 09:19:34;;;;;;;17.00;13.80;;;;;;;20.81;33.92;100817.44;4993831;28;20046;-61
2021/10/13 09:22:05;;;;;;;23.15;15.27;;;;;;;19.40;36.02;100812.16;4993324;28;20549;-61
2021/10/13 09:24:32;;;;;;;31.40;20.40;;;;;;;18.44;37.99;100815.63;4993033;28;20542;-62
2021/10/13 09:27:16;;;;;;;22.25;15.32;;;;;;;17.76;39.23;100819.28;4991745;28;20447;-62
2021/10/13 09:29:42;;;;;;;19.67;14.52;;;;;;;17.17;40.30;100797.41;4991932;28;20140;-62
2021/10/13 09:32:07;;;;;;;19.00;14.20;;;;;;;17.04;41.05;100815.25;4993473;28;20046;-59
2021/10/13 09:34:32;;;;;;;17.45;13.75;;;;;;;16.84;41.58;100809.25;4993080;28;20038;-62
2021/10/13 09:37:01;;;;;;;21.25;15.45;;;;;;;16.48;42.38;100819.78;4992035;28;20435;-63
2021/10/13 09:39:30;;;;;;;27.27;17.10;;;;;;;16.10;43.33;100823.66;4993639;28;20042;-61
2021/10/13 09:42:12;;;;;;;24.60;16.48;;;;;;;15.69;44.22;100814.56;4993257;28;20042;-62
2021/10/13 09:44:38;;;;;;;22.85;15.15;;;;;;;15.36;44.74;100826.94;4989871;28;20145;-62
2021/10/13 09:47:08;;;;;;;22.23;15.07;;;;;;;15.17;45.29;100821.59;4988209;28;20030;-61
2021/10/13 09:49:37;;;;;;;20.27;15.60;;;;;;;14.84;45.74;100792.22;4993030;28;20069;-62
2021/10/13 09:52:13;;;;;;;21.75;14.80;;;;;;;14.99;46.20;100836.88;4991795;28;20046;-59
2021/10/13 09:54:39;;;;;;;18.90;15.13;;;;;;;14.88;46.29;100833.97;4992898;28;20074;-63
2021/10/13 09:57:21;;;;;;;23.92;14.63;;;;;;;15.12;45.95;100835.50;4992172;28;20066;-62
2021/10/13 10:00:01;;;;;;;21.77;16.05;;;;;;;14.94;46.45;100829.75;4993205;28;20069;-61
2021/10/13 10:02:30;;;;;;;21.95;15.88;;;;;;;14.65;46.88;100812.16;4992437;28;20030;-63
2021/10/13 10:04:56;;;;;;;21.85;15.95;;;;;;;14.46;47.94;100826.59;4991541;28;20104;-62
2021/10/13 10:07:21;;;;;;;19.50;15.00;;;;;;;14.07;48.15;100814.91;4975369;28;20470;-60
2021/10/13 10:10:17;;;;;;;19.75;14.65;;;;;;;13.87;48.71;100830.44;4975657;28;20060;-62
2021/10/13 10:12:57;;;;;;;23.23;15.48;;;;;;;13.60;49.65;100825.94;4992736;28;20459;-63
2021/10/13 10:15:38;;;;;;;22.50;15.57;;;;;;;13.26;50.84;100835.63;4991886;28;20039;-61
2021/10/13 10:18:33;;;;;;;26.40;15.90;;;;;;;13.13;50.59;100833.00;4990982;28;20046;-61
2021/10/13 10:21:23;;;;;;;22.30;15.32;;;;;;;13.14;50.49;100829.13;4990782;28;20034;-61
2021/10/13 10:23:56;;;;;;;21.58;15.10;;;;;;;13.08;51.12;100836.00;4991235;28;20076;-61
2021/10/13 10:26:24;;;;;;;20.63;15.10;;;;;;;13.11;50.53;100835.28;4990917;28;20161;-61
2021/10/13 10:28:49;;;;;;;20.60;15.95;;;;;;;13.03;50.81;100814.50;4990627;28;20282;-62
2021/10/13 10:31:27;;;;;;;21.65;15.57;;;;;;;13.30;50.39;100836.53;4988003;28;20046;-61
2021/10/13 10:34:13;;;;;;;23.75;17.30;;;;;;;13.41;50.08;100837.56;4989381;28;20133;-63
2021/10/13 10:36:38;;;;;;;27.17;16.17;;;;;;;13.59;50.00;100830.59;4990462;28;20054;-63
2021/10/13 10:39:11;;;;;;;21.95;15.25;;;;;;;13.75;49.39;100816.19;4990771;28;20097;-62
2021/10/13 10:41:54;;;;;;;24.00;15.93;;;;;;;14.52;48.19;100832.53;4990525;28;20038;-62
2021/10/13 10:44:26;;;;;;;21.25;14.80;;;;;;;14.76;47.19;100813.13;4990459;28;20422;-62
2021/10/13 10:47:11;;;;;;;22.30;15.60;;;;;;;15.50;45.65;100820.91;4990768;28;20057;-61
2021/10/13 10:49:45;;;;;;;19.85;14.18;;;;;;;16.99;43.11;100810.94;4987909;28;20054;-61
2021/10/13 10:52:21;;;;;;;21.02;15.80;;;;;;;17.64;40.82;100834.84;4986997;28;20042;-60
2021/10/13 10:54:53;;;;;;;20.42;16.23;;;;;;;18.62;38.96;100826.63;4989484;28;20045;-60
2021/10/13 10:57:51;;;;;;;23.08;15.57;;;;;;;18.23;39.59;100838.28;4989900;28;20058;-60
2021/10/13 11:00:22;;;;;;;24.20;16.20;;;;;;;17.31;40.85;100833.06;4968227;28;20043;-61
2021/10/13 11:02:50;;;;;;;26.02;16.33;;;;;;;16.72;42.09;100834.91;4964006;28;20058;-62
2021/10/13 11:05:16;;;;;;;23.10;16.35;;;;;;;16.23;43.31;100837.88;4968536;28;20573;-60
2021/10/13 11:07:42;;;;;;;19.90;14.98;;;;;;;15.84;44.24;100845.56;4949291;28;20046;-62
2021/10/13 11:10:12;;;;;;;21.88;16.50;;;;;;;15.38;44.85;100830.09;4945405;28;20066;-62
2021/10/13 11:12:47;;;;;;;20.92;16.55;;;;;;;15.18;45.97;100849.63;4962875;28;20072;-61
2021/10/13 11:15:13;;;;;;;23.08;17.10;;;;;;;15.01;46.44;100842.72;4951167;28;20167;-61
2021/10/13 11:17:38;;;;;;;27.00;18.02;;;;;;;14.86;46.72;100837.03;4960793;28;20100;-60
2021/10/13 11:20:11;;;;;;;25.67;17.50;;;;;;;14.73;47.31;100845.75;4962701;28;21273;-62